Time;durP1;ratioP1;P1;durP2;ratioP2;P2;SDS_P1;SDS_P2;PMS_P1;PMS_P2;Temp;Humidity;BMP_temperature;BMP_pressure;BME280_temperature;BME280_humidity;BME280_pressure;Samples;Min_cycle;Max_cycle;Signal;HPM_P1;HPM_P2
2022/09/10 00:01:58;;;;;;;1.33;0.70;;;;;;;14.01;100.00;98338.72;4156968;28;20216;-47
2022/09/10 00:04:01;;;;;;;1.38;0.82;;;;;;;14.04;100.00;98340.09;4155804;28;20609;-46
2022/09/10 00:06:04;;;;;;;1.23;1.00;;;;;;;14.00;100.00;98339.81;4158770;28;20203;-47
2022/09/10 00:08:07;;;;;;;1.58;0.80;;;;;;;14.01;100.00;98335.97;4158227;28;20272;-46
2022/09/10 00:10:09;;;;;;;2.45;1.35;;;;;;;13.94;100.00;98335.41;4186471;28;20203;-46
2022/09/10 00:12:11;;;;;;;3.08;1.13;;;;;;;13.87;100.00;98334.88;4158064;28;20216;-46
2022/09/10 00:14:16;;;;;;;1.30;0.70;;;;;;;13.95;100.00;98331.56;4153658;28;20204;-46
2022/09/10 00:16:18;;;;;;;1.15;0.85;;;;;;;13.99;100.00;98337.34;4152110;28;20590;-46
2022/09/10 00:18:21;;;;;;;1.85;0.70;;;;;;;13.95;100.00;98337.06;4151298;28;20323;-46
2022/09/10 00:20:23;;;;;;;1.08;0.80;;;;;;;14.17;100.00;98329.31;4153553;28;20218;-46
2022/09/10 00:22:25;;;;;;;2.13;0.80;;;;;;;14.23;100.00;98333.75;4156162;28;20208;-46
2022/09/10 00:24:27;;;;;;;2.13;0.88;;;;;;;14.17;100.00;98329.31;4151648;28;20600;-46
2022/09/10 00:26:34;;;;;;;2.00;0.93;;;;;;;14.18;100.00;98336.50;4156725;28;20558;-46
2022/09/10 00:28:35;;;;;;;2.53;0.95;;;;;;;14.34;100.00;98334.56;4155293;28;20272;-46
2022/09/10 00:30:41;;;;;;;1.08;0.70;;;;;;;14.20;100.00;98327.97;4155313;28;20699;-46
2022/09/10 00:32:43;;;;;;;1.70;0.70;;;;;;;14.07;100.00;98323.84;4172201;28;20216;-46
2022/09/10 00:34:45;;;;;;;4.10;0.90;;;;;;;14.16;100.00;98324.94;4142856;28;20300;-48
2022/09/10 00:36:47;;;;;;;1.20;0.88;;;;;;;14.25;100.00;98331.56;4156086;28;20811;-46
2022/09/10 00:38:50;;;;;;;1.42;0.90;;;;;;;14.25;100.00;98327.97;4159175;28;20235;-46
2022/09/10 00:40:51;;;;;;;1.85;0.63;;;;;;;14.29;100.00;98338.16;4158087;28;20221;-46
2022/09/10 00:42:54;;;;;;;2.05;0.70;;;;;;;14.25;100.00;98337.06;4173881;28;20201;-46
2022/09/10 00:44:58;;;;;;;2.33;0.80;;;;;;;14.33;100.00;98339.25;4172210;28;20292;-47
2022/09/10 00:47:00;;;;;;;1.58;0.90;;;;;;;14.34;100.00;98340.91;4152992;28;20225;-46
2022/09/10 00:49:08;;;;;;;1.98;0.82;;;;;;;14.31;100.00;98335.13;4169903;28;20225;-47
2022/09/10 00:51:10;;;;;;;3.50;0.77;;;;;;;14.21;100.00;98330.47;4162842;28;20830;-46
2022/09/10 00:53:17;;;;;;;1.55;0.80;;;;;;;14.32;100.00;98339.53;4155404;28;20208;-46
2022/09/10 00:55:20;;;;;;;3.13;0.80;;;;;;;14.32;100.00;98334.84;4169024;28;20211;-46
2022/09/10 00:57:22;;;;;;;1.67;0.90;;;;;;;14.21;100.00;98329.63;4172279;28;20203;-46
2022/09/10 00:59:25;;;;;;;3.92;1.08;;;;;;;14.20;100.00;98327.97;4186875;28;20612;-46
2022/09/10 01:01:27;;;;;;;3.45;0.90;;;;;;;14.39;100.00;98329.88;4188164;28;20323;-46
2022/09/10 01:03:30;;;;;;;1.48;0.73;;;;;;;14.34;100.00;98329.88;4161225;28;20201;-46
2022/09/10 01:05:33;;;;;;;2.60;0.93;;;;;;;14.27;100.00;98329.34;4149884;28;20308;-46
2022/09/10 01:07:35;;;;;;;3.92;0.80;;;;;;;14.29;100.00;98327.13;4155969;28;20623;-46
2022/09/10 01:09:38;;;;;;;0.70;0.63;;;;;;;14.30;100.00;98323.28;4173604;28;20271;-47
2022/09/10 01:12:11;;;;;;;3.30;1.10;;;;;;;14.05;100.00;98316.97;4146290;28;20209;-47
2022/09/10 01:14:21;;;;;;;2.28;1.15;;;;;;;14.12;100.00;98321.09;4169729;28;20288;-47
2022/09/10 01:16:43;;;;;;;1.35;0.90;;;;;;;14.11;100.00;98327.69;4151192;28;20233;-47
2022/09/10 01:18:53;;;;;;;1.42;0.80;;;;;;;14.26;100.00;98338.72;4157087;28;20623;-47
2022/09/10 01:20:59;;;;;;;2.47;1.20;;;;;;;14.23;100.00;98333.75;4172762;28;20232;-46
2022/09/10 01:23:10;;;;;;;1.50;1.30;;;;;;;14.27;100.00;98329.34;4173687;28;20287;-46
2022/09/10 01:25:36;;;;;;;2.25;1.27;;;;;;;14.08;100.00;98331.00;4169325;28;20232;-46
2022/09/10 01:27:50;;;;;;;1.88;1.10;;;;;;;13.94;100.00;98327.16;4187707;28;20237;-46
2022/09/10 01:30:14;;;;;;;1.50;1.00;;;;;;;13.85;100.00;98334.31;4168217;28;20212;-46
2022/09/10 01:32:27;;;;;;;2.83;1.50;;;;;;;13.96;100.00;98343.41;4155308;28;20217;-47
2022/09/10 01:34:38;;;;;;;2.38;1.20;;;;;;;14.02;100.00;98337.59;4154594;28;20202;-46
2022/09/10 01:36:44;;;;;;;1.67;1.50;;;;;;;14.03;100.00;98327.44;4185936;28;20207;-46
2022/09/10 01:38:45;;;;;;;2.03;1.40;;;;;;;14.04;100.00;98334.59;4156360;28;20236;-47
2022/09/10 01:40:48;;;;;;;3.58;1.58;;;;;;;13.99;100.00;98329.06;4151676;28;20211;-46
2022/09/10 01:42:50;;;;;;;4.43;1.90;;;;;;;14.19;100.00;98334.59;4152109;28;20209;-46
2022/09/10 01:44:53;;;;;;;2.40;1.60;;;;;;;14.26;100.00;98333.22;4162144;28;20236;-47
2022/09/10 01:47:05;;;;;;;2.25;1.30;;;;;;;14.32;100.00;98336.78;4170645;28;20244;-47
2022/09/10 01:49:26;;;;;;;2.25;1.20;;;;;;;14.36;100.00;98343.38;4170700;28;20334;-46
2022/09/10 01:51:56;;;;;;;3.30;1.50;;;;;;;14.40;100.00;98336.19;4186937;28;20685;-46
2022/09/10 01:54:25;;;;;;;4.88;1.30;;;;;;;14.42;100.00;98325.75;4160897;28;20291;-47
2022/09/10 01:56:45;;;;;;;1.73;1.63;;;;;;;14.36;100.00;98324.91;4187894;28;20212;-47
2022/09/10 01:58:47;;;;;;;2.10;1.55;;;;;;;14.38;100.00;98325.47;4186126;28;20228;-47
2022/09/10 02:01:06;;;;;;;2.55;1.70;;;;;;;14.18;100.00;98325.50;4171561;28;20215;-48
2022/09/10 02:03:15;;;;;;;3.35;1.83;;;;;;;14.10;100.00;98322.47;4149100;28;20193;-47
2022/09/10 02:05:19;;;;;;;2.83;1.88;;;;;;;14.24;100.00;98324.38;4153515;28;20299;-47
2022/09/10 02:07:23;;;;;;;1.67;1.58;;;;;;;14.33;100.00;98322.75;4160623;28;20204;-47
2022/09/10 02:09:25;;;;;;;4.03;1.80;;;;;;;14.38;100.00;98317.19;4155604;28;20229;-47
2022/09/10 02:11:27;;;;;;;3.63;1.55;;;;;;;14.49;100.00;98320.78;4169874;28;20790;-48
2022/09/10 02:13:29;;;;;;;2.25;2.05;;;;;;;14.44;100.00;98318.84;4170603;28;20209;-47
2022/09/10 02:15:32;;;;;;;2.80;1.95;;;;;;;14.50;100.00;98325.97;4161114;28;20292;-46
2022/09/10 02:17:35;;;;;;;2.33;1.65;;;;;;;14.50;100.00;98316.91;4140648;28;20323;-47
2022/09/10 02:19:37;;;;;;;2.63;1.77;;;;;;;14.53;100.00;98317.19;4156303;28;20714;-47
2022/09/10 02:21:39;;;;;;;2.25;2.05;;;;;;;14.52;100.00;98320.19;4155608;28;20223;-47
2022/09/10 02:23:54;;;;;;;2.92;1.73;;;;;;;14.54;100.00;98310.56;4160750;28;20197;-46
2022/09/10 02:25:58;;;;;;;4.25;1.95;;;;;;;14.41;100.00;98315.81;4161218;28;20207;-47
2022/09/10 02:28:00;;;;;;;2.17;2.00;;;;;;;14.41;100.00;98313.06;4154080;28;20227;-46
2022/09/10 02:30:03;;;;;;;3.35;1.92;;;;;;;14.37;100.00;98312.78;4169180;28;20284;-47
2022/09/10 02:32:07;;;;;;;2.67;2.40;;;;;;;14.21;100.00;98313.94;4187276;28;20237;-47
2022/09/10 02:34:09;;;;;;;2.25;2.08;;;;;;;14.16;100.00;98313.91;4158690;28;20731;-46
2022/09/10 02:36:11;;;;;;;3.83;2.67;;;;;;;14.12;100.00;98318.34;4153184;28;20315;-47
2022/09/10 02:38:13;;;;;;;4.88;3.80;;;;;;;14.11;100.00;98319.41;4160845;28;20227;-47
2022/09/10 02:40:18;;;;;;;4.10;3.47;;;;;;;14.14;100.00;98315.28;4159766;28;20211;-46
2022/09/10 02:42:21;;;;;;;3.00;2.80;;;;;;;14.06;100.00;98315.88;4158941;28;20297;-47
2022/09/10 02:44:23;;;;;;;2.63;1.95;;;;;;;14.11;100.00;98307.59;4153263;28;20248;-46
2022/09/10 02:46:24;;;;;;;4.30;2.47;;;;;;;14.25;100.00;98314.22;4170419;28;20311;-47
2022/09/10 02:48:27;;;;;;;3.33;3.05;;;;;;;14.11;100.00;98307.59;4157080;28;20252;-48
2022/09/10 02:50:28;;;;;;;4.65;2.70;;;;;;;14.16;100.00;98308.41;4173238;28;20212;-46
2022/09/10 02:52:30;;;;;;;5.32;3.08;;;;;;;14.19;100.00;98316.16;4171266;28;20247;-47
2022/09/10 02:54:32;;;;;;;3.00;2.80;;;;;;;14.27;100.00;98309.25;4183562;28;20223;-46
2022/09/10 02:56:33;;;;;;;3.83;2.38;;;;;;;14.36;100.00;98315.84;4154101;28;20232;-47
2022/09/10 02:58:38;;;;;;;2.92;2.65;;;;;;;14.31;100.00;98313.91;4157080;28;20283;-47
2022/09/10 03:00:41;;;;;;;6.43;2.65;;;;;;;14.29;100.00;98313.38;4160153;28;20219;-47
2022/09/10 03:02:42;;;;;;;4.18;2.30;;;;;;;14.35;100.00;98314.19;4156709;28;20300;-47
2022/09/10 03:04:44;;;;;;;5.18;2.40;;;;;;;14.38;100.00;98308.94;4161522;28;20215;-47
2022/09/10 03:06:48;;;;;;;2.67;2.47;;;;;;;14.38;100.00;98308.94;4151950;28;20200;-47
2022/09/10 03:08:50;;;;;;;3.17;2.25;;;;;;;14.31;100.00;98310.34;4169264;28;20221;-48
2022/09/10 03:10:52;;;;;;;4.20;2.83;;;;;;;14.39;100.00;98310.63;4160137;28;20264;-47
2022/09/10 03:12:54;;;;;;;2.22;1.95;;;;;;;14.33;100.00;98306.22;4150977;28;20204;-48
2022/09/10 03:14:56;;;;;;;3.92;2.28;;;;;;;14.21;100.00;98311.19;4185790;28;20299;-47
2022/09/10 03:16:59;;;;;;;3.38;2.70;;;;;;;14.37;100.00;98310.03;4184695;28;20628;-48
2022/09/10 03:19:00;;;;;;;2.83;1.85;;;;;;;14.40;100.00;98311.41;4153610;28;20224;-47
2022/09/10 03:21:14;;;;;;;2.45;1.80;;;;;;;14.28;100.00;98303.47;4152786;28;20244;-48
2022/09/10 03:23:17;;;;;;;2.40;2.20;;;;;;;14.31;100.00;98313.91;4154332;28;20205;-48
2022/09/10 03:25:18;;;;;;;3.50;2.33;;;;;;;14.36;100.00;98305.66;4154041;28;20741;-49
2022/09/10 03:27:21;;;;;;;14.10;2.25;;;;;;;14.37;100.00;98307.28;4151798;28;20663;-48
2022/09/10 03:29:23;;;;;;;3.17;2.20;;;;;;;14.35;100.00;98315.00;4153529;28;20272;-47
2022/09/10 03:31:26;;;;;;;2.33;2.13;;;;;;;14.39;100.00;98310.63;4185222;28;20216;-48
2022/09/10 03:33:27;;;;;;;3.33;2.08;;;;;;;14.29;100.00;98310.63;4168999;28;20204;-47
2022/09/10 03:35:29;;;;;;;2.47;1.70;;;;;;;14.23;100.00;98305.44;4153805;28;20205;-48
2022/09/10 03:37:31;;;;;;;2.08;1.80;;;;;;;14.25;100.00;98304.03;4185387;28;20401;-47
2022/09/10 03:39:32;;;;;;;2.22;2.00;;;;;;;14.20;100.00;98306.78;4154241;28;20235;-47
2022/09/10 03:41:34;;;;;;;6.72;2.30;;;;;;;14.13;100.00;98305.38;4157590;28;20213;-47
2022/09/10 03:43:36;;;;;;;3.97;2.75;;;;;;;14.14;100.00;98307.88;4152225;28;20213;-48
2022/09/10 03:45:38;;;;;;;6.00;3.03;;;;;;;14.11;100.00;98302.09;4154772;28;20213;-47
2022/09/10 03:47:40;;;;;;;6.40;2.72;;;;;;;14.16;100.00;98308.41;4144365;28;20208;-47
2022/09/10 03:49:42;;;;;;;3.42;2.30;;;;;;;14.26;100.00;98311.19;4152081;28;20212;-47
2022/09/10 03:51:44;;;;;;;3.35;2.15;;;;;;;14.21;100.00;98308.44;4146480;28;20322;-47
2022/09/10 03:53:46;;;;;;;6.32;2.70;;;;;;;14.15;100.00;98304.00;4152327;28;20213;-47
2022/09/10 03:55:49;;;;;;;3.13;2.65;;;;;;;14.09;100.00;98309.81;4184637;28;20211;-47
2022/09/10 03:57:51;;;;;;;2.53;2.33;;;;;;;14.05;100.00;98306.81;4184637;28;20227;-47
2022/09/10 03:59:52;;;;;;;5.40;2.35;;;;;;;14.10;100.00;98311.47;4153803;28;20201;-47
2022/09/10 04:01:56;;;;;;;2.40;2.20;;;;;;;14.14;100.00;98313.38;4154191;28;20288;-47
2022/09/10 04:03:57;;;;;;;4.72;2.33;;;;;;;14.13;100.00;98308.97;4168330;28;20733;-48
2022/09/10 04:05:59;;;;;;;2.90;1.80;;;;;;;14.21;100.00;98316.69;4164666;28;20566;-47
2022/09/10 04:08:01;;;;;;;2.42;2.10;;;;;;;14.08;100.00;98308.97;4170457;28;20697;-47
2022/09/10 04:10:03;;;;;;;3.10;2.13;;;;;;;14.06;100.00;98313.13;4158614;28;20200;-47
2022/09/10 04:12:05;;;;;;;2.55;2.13;;;;;;;13.96;100.00;98307.63;4164341;28;20717;-47
2022/09/10 04:14:07;;;;;;;3.33;2.40;;;;;;;13.96;100.00;98319.44;4161465;28;20211;-47
2022/09/10 04:16:08;;;;;;;3.85;2.47;;;;;;;13.98;100.00;98314.47;4154646;28;20211;-48
2022/09/10 04:18:10;;;;;;;5.82;2.55;;;;;;;13.97;100.00;98312.03;4162434;28;20229;-48
2022/09/10 04:20:12;;;;;;;2.53;2.33;;;;;;;13.98;100.00;98308.97;4186426;28;20242;-47
2022/09/10 04:22:14;;;;;;;2.75;2.47;;;;;;;14.02;100.00;98309.25;4162645;28;20242;-47
2022/09/10 04:24:15;;;;;;;1.95;1.85;;;;;;;14.00;100.00;98317.81;4159646;28;20280;-47
2022/09/10 04:26:19;;;;;;;2.28;1.92;;;;;;;14.09;100.00;98310.63;4157494;28;20291;-47
2022/09/10 04:28:20;;;;;;;5.88;2.15;;;;;;;14.04;100.00;98307.06;4154744;28;20303;-47
2022/09/10 04:30:22;;;;;;;3.08;1.75;;;;;;;14.03;100.00;98305.44;4170281;28;20681;-47
2022/09/10 04:32:24;;;;;;;1.92;1.80;;;;;;;14.00;100.00;98306.78;4162604;28;20256;-47
2022/09/10 04:34:25;;;;;;;2.53;1.95;;;;;;;14.12;100.00;98314.75;4156682;28;20212;-47
2022/09/10 04:36:27;;;;;;;1.95;1.60;;;;;;;14.05;100.00;98315.06;4187164;28;20564;-46
2022/09/10 04:38:31;;;;;;;2.45;1.70;;;;;;;14.14;100.00;98313.38;4162427;28;20224;-47
2022/09/10 04:40:33;;;;;;;1.90;1.60;;;;;;;14.09;100.00;98316.13;4163596;28;20705;-47
2022/09/10 04:42:37;;;;;;;4.13;1.88;;;;;;;14.07;100.00;98315.59;4169977;28;20302;-46
2022/09/10 04:44:39;;;;;;;2.25;1.60;;;;;;;14.04;100.00;98321.63;4186193;28;20294;-47
2022/09/10 04:46:42;;;;;;;1.40;1.30;;;;;;;13.97;100.00;98323.84;4165098;28;20291;-47
2022/09/10 04:48:43;;;;;;;1.65;1.38;;;;;;;13.97;100.00;98323.03;4156442;28;20657;-47
2022/09/10 04:50:45;;;;;;;1.42;1.20;;;;;;;13.99;100.00;98316.16;4169957;28;20291;-48
2022/09/10 04:53:07;;;;;;;2.28;1.75;;;;;;;14.00;100.00;98317.81;4165222;28;20200;-48
2022/09/10 04:55:09;;;;;;;2.45;1.77;;;;;;;13.96;100.00;98321.41;4155100;28;20205;-47
2022/09/10 04:57:11;;;;;;;2.00;1.80;;;;;;;13.98;100.00;98322.72;4155793;28;20220;-47
2022/09/10 04:59:12;;;;;;;7.15;1.70;;;;;;;13.97;100.00;98323.03;4162797;28;20230;-47
2022/09/10 05:01:14;;;;;;;3.22;2.15;;;;;;;13.96;100.00;98329.66;4163335;28;20215;-47
2022/09/10 05:03:16;;;;;;;3.08;2.17;;;;;;;14.01;100.00;98324.94;4168321;28;20212;-47
2022/09/10 05:05:18;;;;;;;4.00;2.28;;;;;;;13.99;100.00;98320.81;4157730;28;20232;-48
2022/09/10 05:07:20;;;;;;;5.85;2.22;;;;;;;14.06;100.00;98319.44;4156532;28;20312;-47
2022/09/10 05:09:22;;;;;;;2.30;1.83;;;;;;;14.07;100.00;98321.09;4160083;28;20248;-47
2022/09/10 05:11:24;;;;;;;3.42;2.65;;;;;;;14.10;100.00;98312.28;4170427;28;20296;-47
2022/09/10 05:13:26;;;;;;;2.60;2.40;;;;;;;14.13;100.00;98322.75;4159841;28;20197;-47
2022/09/10 05:15:28;;;;;;;2.92;2.20;;;;;;;14.09;100.00;98321.63;4161096;28;20216;-48
2022/09/10 05:17:29;;;;;;;2.70;1.80;;;;;;;14.04;100.00;98321.63;4152401;28;20225;-48
2022/09/10 05:19:31;;;;;;;3.88;1.85;;;;;;;14.10;100.00;98312.28;4155953;28;20316;-48
2022/09/10 05:21:32;;;;;;;3.85;2.33;;;;;;;14.13;100.00;98325.50;4174646;28;20699;-44
2022/09/10 05:23:35;;;;;;;2.60;2.13;;;;;;;14.11;100.00;98313.91;4159665;28;20295;-45
2022/09/10 05:25:36;;;;;;;2.63;2.20;;;;;;;14.12;100.00;98315.59;4160849;28;20888;-45
2022/09/10 05:27:38;;;;;;;4.80;2.33;;;;;;;14.12;100.00;98315.59;4184923;28;20193;-45
2022/09/10 05:29:40;;;;;;;4.97;1.90;;;;;;;14.13;100.00;98320.00;4153933;28;20639;-45
2022/09/10 05:31:41;;;;;;;3.10;1.92;;;;;;;14.17;100.00;98323.81;4163785;28;20201;-45
2022/09/10 05:33:43;;;;;;;5.57;1.90;;;;;;;14.21;100.00;98327.72;4163851;28;20212;-45
2022/09/10 05:35:47;;;;;;;5.22;1.98;;;;;;;14.10;100.00;98323.28;4163818;28;20240;-45
2022/09/10 05:37:49;;;;;;;5.78;2.35;;;;;;;14.23;100.00;98328.25;4152084;28;20251;-45
2022/09/10 05:39:50;;;;;;;2.70;1.92;;;;;;;14.28;100.00;98330.16;4155790;28;20196;-45
2022/09/10 05:41:54;;;;;;;2.67;2.10;;;;;;;14.33;100.00;98335.66;4161843;28;20215;-45
2022/09/10 05:43:56;;;;;;;4.20;2.03;;;;;;;14.24;100.00;98338.16;4160189;28;20288;-45
2022/09/10 05:45:57;;;;;;;4.47;1.85;;;;;;;14.29;100.00;98331.84;4168281;28;20329;-46
2022/09/10 05:47:59;;;;;;;8.60;1.95;;;;;;;14.36;100.00;98327.66;4161724;28;20303;-45
2022/09/10 05:50:01;;;;;;;5.60;2.20;;;;;;;14.31;100.00;98333.19;4162040;28;20200;-45
2022/09/10 05:52:03;;;;;;;3.90;2.20;;;;;;;14.33;100.00;98332.91;4162815;28;20208;-45
2022/09/10 05:54:05;;;;;;;3.22;1.77;;;;;;;14.26;100.00;98337.88;4185789;28;20200;-45
2022/09/10 05:56:06;;;;;;;4.95;2.25;;;;;;;14.36;100.00;98338.69;4161107;28;20204;-45
2022/09/10 05:58:09;;;;;;;5.10;1.75;;;;;;;14.31;100.00;98346.13;4156354;28;20233;-45
2022/09/10 06:00:11;;;;;;;6.13;2.08;;;;;;;14.37;100.00;98345.03;4160176;28;20281;-45
2022/09/10 06:02:17;;;;;;;4.97;1.67;;;;;;;14.44;100.00;98340.84;4151427;28;20241;-47
2022/09/10 06:04:24;;;;;;;4.18;1.65;;;;;;;14.39;100.00;98349.16;4170305;28;20212;-47
2022/09/10 06:06:27;;;;;;;4.22;1.90;;;;;;;14.41;100.00;98344.19;4184698;28;20212;-47
2022/09/10 06:08:31;;;;;;;4.32;2.22;;;;;;;14.42;100.00;98347.78;4186001;28;20220;-47
2022/09/10 06:10:34;;;;;;;6.57;2.05;;;;;;;14.42;100.00;98334.81;4161108;28;20271;-46
2022/09/10 06:12:36;;;;;;;3.35;1.50;;;;;;;14.37;100.00;98339.53;4151739;28;20206;-47
2022/09/10 06:14:38;;;;;;;4.55;2.17;;;;;;;14.38;100.00;98347.47;4161367;28;20214;-46
2022/09/10 06:16:40;;;;;;;4.22;1.83;;;;;;;14.39;100.00;98349.16;4172596;28;20303;-46
2022/09/10 06:18:42;;;;;;;6.25;2.28;;;;;;;14.47;100.00;98351.34;4151232;28;20275;-46
2022/09/10 06:20:46;;;;;;;8.15;2.85;;;;;;;14.40;100.00;98356.31;4171695;28;20200;-47
2022/09/10 06:22:48;;;;;;;6.80;2.15;;;;;;;14.48;100.00;98352.13;4184867;28;20327;-46
2022/09/10 06:24:49;;;;;;;8.18;2.80;;;;;;;14.56;100.00;98366.16;4155415;28;20211;-47
2022/09/10 06:26:51;;;;;;;5.22;2.63;;;;;;;14.55;100.00;98361.78;4160274;28;20219;-47
2022/09/10 06:28:55;;;;;;;9.20;2.72;;;;;;;14.54;100.00;98378.56;4156196;28;20621;-46
2022/09/10 06:30:57;;;;;;;9.80;2.75;;;;;;;14.54;100.00;98368.38;4151039;28;20216;-46
2022/09/10 06:32:59;;;;;;;6.32;3.35;;;;;;;14.58;100.00;98374.97;4155256;28;20220;-46
2022/09/10 06:35:00;;;;;;;4.90;3.00;;;;;;;14.68;100.00;98376.88;4156100;28;20288;-46
2022/09/10 06:37:03;;;;;;;2.80;2.22;;;;;;;14.66;100.00;98388.19;4157008;28;20621;-46
2022/09/10 06:39:06;;;;;;;5.75;2.35;;;;;;;14.79;100.00;98384.03;4154882;28;20237;-46
2022/09/10 06:41:10;;;;;;;6.57;2.33;;;;;;;14.70;100.00;98377.44;4153348;28;20206;-46
2022/09/10 06:43:12;;;;;;;6.10;2.67;;;;;;;14.68;100.00;98385.13;4151434;28;20601;-46
2022/09/10 06:45:14;;;;;;;7.50;2.50;;;;;;;14.66;100.00;98382.69;4160294;28;20635;-46
2022/09/10 06:47:16;;;;;;;4.63;1.92;;;;;;;14.74;100.00;98390.38;4160455;28;20208;-47
2022/09/10 06:49:37;;;;;;;7.45;2.25;;;;;;;14.73;100.00;98385.13;4168180;28;20236;-47
2022/09/10 06:51:39;;;;;;;6.75;2.53;;;;;;;14.73;100.00;98388.72;4182971;28;20735;-46
2022/09/10 06:53:42;;;;;;;8.07;2.45;;;;;;;14.81;100.00;98384.56;4157956;28;20232;-47
2022/09/10 06:55:44;;;;;;;4.07;1.75;;;;;;;14.71;100.00;98379.09;4184381;28;20298;-46
2022/09/10 06:57:46;;;;;;;9.20;3.03;;;;;;;14.77;100.00;98380.72;4154037;28;20212;-46
2022/09/10 06:59:47;;;;;;;7.57;2.30;;;;;;;14.88;100.00;98391.44;4158903;28;20307;-47
2022/09/10 07:01:49;;;;;;;3.00;2.05;;;;;;;14.97;100.00;98384.22;4162869;28;20205;-46
2022/09/10 07:03:55;;;;;;;4.63;1.95;;;;;;;15.00;100.00;98375.41;4155645;28;20208;-46
2022/09/10 07:06:02;;;;;;;5.32;3.00;;;;;;;15.24;100.00;98389.34;4160270;28;20204;-46
2022/09/10 07:08:04;;;;;;;3.28;2.13;;;;;;;15.18;100.00;98385.81;4183727;28;20584;-47
2022/09/10 07:10:06;;;;;;;5.38;2.20;;;;;;;15.16;100.00;98389.94;4154567;28;20782;-47
2022/09/10 07:12:08;;;;;;;4.50;2.40;;;;;;;15.10;100.00;98391.09;4154398;28;20211;-46
2022/09/10 07:14:14;;;;;;;4.88;3.05;;;;;;;15.06;100.00;98388.06;4156580;28;20605;-47
2022/09/10 07:16:19;;;;;;;4.45;2.15;;;;;;;15.10;100.00;98391.09;4152553;28;20304;-46
2022/09/10 07:18:21;;;;;;;4.28;2.85;;;;;;;15.03;100.00;98385.84;4185500;28;20258;-46
2022/09/10 07:20:24;;;;;;;5.18;2.15;;;;;;;15.07;100.00;98391.63;4172712;28;20208;-46
2022/09/10 07:22:26;;;;;;;4.53;2.40;;;;;;;15.06;100.00;98388.06;4156877;28;20573;-47
2022/09/10 07:24:27;;;;;;;6.10;2.78;;;;;;;15.08;100.00;98391.34;4154958;28;20249;-46
2022/09/10 07:26:29;;;;;;;4.72;2.17;;;;;;;15.12;100.00;98395.22;4159196;28;20299;-47
2022/09/10 07:28:31;;;;;;;4.13;2.42;;;;;;;15.19;100.00;98397.66;4159254;28;20659;-47
2022/09/10 07:30:34;;;;;;;5.85;2.60;;;;;;;15.24;100.00;98401.19;4186111;28;20697;-47
2022/09/10 07:32:36;;;;;;;4.50;1.70;;;;;;;15.26;100.00;98407.28;4156023;28;20221;-47
2022/09/10 07:34:38;;;;;;;4.20;1.95;;;;;;;15.34;100.00;98403.94;4184827;28;20741;-46
2022/09/10 07:36:39;;;;;;;4.97;2.60;;;;;;;15.37;100.00;98405.31;4154897;28;20244;-47
2022/09/10 07:38:42;;;;;;;4.07;1.75;;;;;;;15.56;100.00;98404.38;4166234;28;20287;-47
2022/09/10 07:40:43;;;;;;;5.53;1.85;;;;;;;15.80;100.00;98412.78;4167844;28;20205;-46
2022/09/10 07:42:45;;;;;;;6.20;1.92;;;;;;;15.73;100.00;98406.75;4155184;28;20211;-47
2022/09/10 07:44:47;;;;;;;4.95;1.50;;;;;;;16.19;100.00;98408.91;4167304;28;20235;-47
2022/09/10 07:46:48;;;;;;;6.32;1.88;;;;;;;16.51;100.00;98411.97;4153719;28;20340;-46
2022/09/10 07:48:58;;;;;;;3.50;1.25;;;;;;;16.56;100.00;98417.44;4151958;28;20233;-47
2022/09/10 07:51:02;;;;;;;2.28;1.30;;;;;;;16.24;100.00;98411.59;4151535;28;20267;-47
2022/09/10 07:53:06;;;;;;;4.65;1.85;;;;;;;16.14;100.00;98422.75;4152932;28;20292;-46
2022/09/10 07:55:08;;;;;;;8.18;1.95;;;;;;;15.99;100.00;98411.84;4184238;28;20200;-46
2022/09/10 07:57:10;;;;;;;3.25;1.50;;;;;;;15.77;100.00;98422.44;4165860;28;20300;-46
2022/09/10 07:59:12;;;;;;;4.15;1.90;;;;;;;15.84;100.00;98428.47;4186080;28;20228;-47
2022/09/10 08:01:14;;;;;;;3.58;1.83;;;;;;;15.55;100.00;98419.28;4160530;28;20211;-46
2022/09/10 08:03:17;;;;;;;4.13;1.67;;;;;;;15.62;100.00;98430.81;4183423;28;20694;-46
2022/09/10 08:05:18;;;;;;;4.35;1.30;;;;;;;15.71;100.00;98428.31;4151165;28;20208;-46
2022/09/10 08:07:20;;;;;;;5.50;1.45;;;;;;;15.70;100.00;98426.66;4184001;28;21142;-46
2022/09/10 08:09:23;;;;;;;8.48;1.70;;;;;;;15.78;100.00;98424.13;4159442;28;21014;-46
2022/09/10 08:11:25;;;;;;;2.90;1.50;;;;;;;15.88;100.00;98434.25;4159972;28;20713;-47
2022/09/10 08:13:28;;;;;;;2.40;1.55;;;;;;;15.86;100.00;98442.84;4164399;28;20199;-46
2022/09/10 08:15:30;;;;;;;2.08;1.33;;;;;;;15.88;99.25;98435.09;4183744;28;21594;-46
2022/09/10 08:17:33;;;;;;;3.75;1.48;;;;;;;15.86;99.88;98442.84;4151838;28;20209;-45
2022/09/10 08:19:35;;;;;;;4.50;1.38;;;;;;;15.92;98.77;98436.19;4164988;28;20290;-46
2022/09/10 08:21:37;;;;;;;3.45;1.20;;;;;;;15.94;97.76;98436.69;4185742;28;20208;-46
2022/09/10 08:23:39;;;;;;;3.60;1.10;;;;;;;15.98;98.44;98439.72;4171529;28;20604;-46
2022/09/10 08:25:50;;;;;;;5.60;1.40;;;;;;;15.92;98.59;98441.69;4158977;28;20212;-47
2022/09/10 08:27:53;;;;;;;3.28;1.00;;;;;;;15.99;98.15;98431.16;4159692;28;20209;-46
2022/09/10 08:29:55;;;;;;;3.90;1.42;;;;;;;16.06;98.22;98445.47;4156169;28;20277;-46
2022/09/10 08:31:57;;;;;;;4.28;1.15;;;;;;;16.13;96.86;98440.44;4185646;28;20208;-45
2022/09/10 08:34:00;;;;;;;6.07;1.50;;;;;;;16.38;97.19;98443.03;4160578;28;20224;-46
2022/09/10 08:36:03;;;;;;;4.35;1.05;;;;;;;16.51;96.60;98439.59;4159941;28;20307;-46
2022/09/10 08:38:05;;;;;;;2.50;1.10;;;;;;;16.43;94.87;98442.97;4160014;28;20284;-45
2022/09/10 08:40:10;;;;;;;3.30;0.80;;;;;;;16.43;93.93;98442.97;4166886;28;20727;-46
2022/09/10 08:42:21;;;;;;;3.15;1.98;;;;;;;16.66;94.49;98441.38;4171861;28;20205;-47
2022/09/10 08:44:47;;;;;;;4.88;1.25;;;;;;;16.86;94.37;98453.06;4142563;28;20301;-47
2022/09/10 08:46:58;;;;;;;4.60;1.55;;;;;;;16.81;92.27;98444.00;4156179;28;20301;-46
2022/09/10 08:49:12;;;;;;;5.60;0.95;;;;;;;16.77;92.71;98448.47;4157050;28;20229;-46
2022/09/10 08:51:17;;;;;;;2.53;1.08;;;;;;;16.67;93.64;98452.16;4157933;28;20287;-46
2022/09/10 08:53:24;;;;;;;1.60;0.82;;;;;;;16.41;92.32;98455.41;4163990;28;20207;-46
2022/09/10 08:55:30;;;;;;;1.92;1.15;;;;;;;16.46;93.50;98453.47;4186559;28;20200;-46
2022/09/10 08:58:01;;;;;;;4.40;1.85;;;;;;;16.36;93.20;98458.22;4154913;28;20205;-46
2022/09/10 09:00:04;;;;;;;1.85;0.70;;;;;;;16.46;92.50;98453.47;4148202;28;20282;-46
2022/09/10 09:02:30;;;;;;;1.83;0.88;;;;;;;16.55;92.56;98451.72;4154493;28;20674;-47
2022/09/10 09:04:59;;;;;;;4.00;1.42;;;;;;;16.60;93.11;98465.50;4172025;28;20757;-47
2022/09/10 09:07:04;;;;;;;4.63;1.33;;;;;;;16.48;93.14;98470.56;4156611;28;20207;-47
2022/09/10 09:09:08;;;;;;;5.30;1.02;;;;;;;16.34;93.66;98461.25;4162955;28;20789;-46
2022/09/10 09:11:44;;;;;;;3.35;1.08;;;;;;;16.28;93.15;98456.88;4170791;28;20205;-47
2022/09/10 09:13:49;;;;;;;1.48;0.88;;;;;;;16.40;94.43;98451.84;4157569;28;20718;-48
2022/09/10 09:16:08;;;;;;;2.95;1.17;;;;;;;16.52;94.28;98463.34;4170163;28;20224;-47
2022/09/10 09:18:27;;;;;;;4.55;1.38;;;;;;;16.63;93.27;98459.38;4168053;28;20223;-48
2022/09/10 09:20:49;;;;;;;3.58;0.95;;;;;;;16.85;93.17;98462.50;4154040;28;20717;-46
2022/09/10 09:22:54;;;;;;;2.17;1.10;;;;;;;16.91;93.09;98454.97;4173081;28;20215;-47
2022/09/10 09:25:08;;;;;;;3.45;1.33;;;;;;;16.90;96.05;98451.34;4162384;28;20204;-47
2022/09/10 09:27:15;;;;;;;3.03;1.15;;;;;;;16.87;93.76;98454.72;4152581;28;20229;-47
2022/09/10 09:29:25;;;;;;;5.22;1.45;;;;;;;16.70;94.84;98465.38;4158548;28;20221;-47
2022/09/10 09:31:33;;;;;;;4.07;1.42;;;;;;;16.54;94.91;98472.16;4170321;28;20227;-48
2022/09/10 09:33:35;;;;;;;7.32;1.50;;;;;;;16.35;95.68;98475.91;4170463;28;20283;-49
2022/09/10 09:35:51;;;;;;;6.38;1.30;;;;;;;16.32;95.54;98466.25;4154488;28;20209;-47
2022/09/10 09:38:22;;;;;;;2.33;1.10;;;;;;;16.47;96.82;98466.16;4169906;28;20204;-47
2022/09/10 09:40:56;;;;;;;5.97;0.90;;;;;;;16.40;95.56;98471.19;4150524;28;20260;-48
2022/09/10 09:43:10;;;;;;;2.95;1.10;;;;;;;16.33;96.29;98473.41;4167792;28;20291;-48